createdAt,value
2019-03-03T00:01:25.728Z,92.70
2019-03-03T00:03:54.540Z,92.60
2019-03-03T00:06:23.323Z,92.60
2019-03-03T00:11:20.439Z,92.40
2019-03-03T00:13:49.241Z,92.20
2019-03-03T00:21:14.820Z,92.10
2019-03-03T00:23:43.617Z,92.10
2019-03-03T00:26:12.390Z,92.10
2019-03-03T00:31:10.008Z,91.80
2019-03-03T00:36:07.372Z,91.90
2019-03-03T00:41:50.401Z,91.70
2019-03-03T00:44:47.464Z,91.70
2019-03-03T00:50:19.628Z,92.10
2019-03-03T00:53:05.733Z,92.10
2019-03-03T00:55:59.752Z,92.10
2019-03-03T00:58:53.845Z,92.30
2019-03-03T01:01:49.504Z,92.40
2019-03-03T01:04:27.865Z,92.40
2019-03-03T01:07:09.500Z,92.50
2019-03-03T01:10:06.839Z,92.40
2019-03-03T01:12:53.257Z,92.40
2019-03-03T01:15:34.265Z,92.40
2019-03-03T01:18:22.122Z,92.30
2019-03-03T01:23:55.100Z,92.50
2019-03-03T01:26:24.025Z,92.50
2019-03-03T01:28:52.796Z,92.50
2019-03-03T01:31:21.839Z,92.50
2019-03-03T01:33:50.617Z,92.50
2019-03-03T01:36:19.395Z,92.50
2019-03-03T01:38:48.420Z,92.50
2019-03-03T01:41:17.207Z,92.50
2019-03-03T01:43:46.068Z,92.70
2019-03-03T01:46:14.938Z,92.70
2019-03-03T01:48:43.786Z,92.80
2019-03-03T01:51:12.912Z,92.80
2019-03-03T01:53:41.715Z,92.80
2019-03-03T01:56:10.555Z,92.90
2019-03-03T01:58:39.602Z,93.40
2019-03-03T02:01:08.452Z,93.10
2019-03-03T02:03:37.717Z,93.10
2019-03-03T02:06:06.786Z,93.30
2019-03-03T02:08:35.557Z,93.30
2019-03-03T02:11:04.493Z,93.30
2019-03-03T02:13:33.347Z,93.30
2019-03-03T02:16:03.652Z,93.20
2019-03-03T02:18:32.421Z,93.50
2019-03-03T02:21:01.196Z,93.10
2019-03-03T02:23:30.132Z,93.00
2019-03-03T02:25:59.452Z,93.20
2019-03-03T02:28:28.216Z,93.20
2019-03-03T02:30:57.037Z,92.70
2019-03-03T02:33:25.885Z,92.70
2019-03-03T02:35:54.821Z,92.60
2019-03-03T02:38:23.917Z,92.50
2019-03-03T02:40:52.780Z,92.60
2019-03-03T02:43:21.789Z,92.60
2019-03-03T02:45:50.717Z,93.00
2019-03-03T02:48:19.492Z,92.40
2019-03-03T02:50:48.289Z,92.40
2019-03-03T02:53:17.070Z,92.50
2019-03-03T02:55:45.940Z,92.40
2019-03-03T02:58:14.798Z,92.40
2019-03-03T03:00:53.872Z,92.20
2019-03-03T03:03:23.208Z,92.20
2019-03-03T03:06:20.286Z,92.50
2019-03-03T03:09:08.991Z,92.20
2019-03-03T03:11:46.109Z,92.20
2019-03-03T03:14:33.974Z,92.10
2019-03-03T03:17:25.023Z,92.20
2019-03-03T03:20:15.641Z,92.20
2019-03-03T03:22:52.031Z,92.20
2019-03-03T03:25:42.835Z,92.50
2019-03-03T03:28:40.034Z,92.30
2019-03-03T03:31:17.484Z,92.40
2019-03-03T03:34:17.511Z,92.40
2019-03-03T03:36:59.640Z,92.50
2019-03-03T03:39:34.668Z,92.40
2019-03-03T03:42:18.179Z,92.70
2019-03-03T03:44:56.465Z,92.50
2019-03-03T03:47:48.854Z,92.50
2019-03-03T03:50:45.602Z,92.50
2019-03-03T03:53:22.808Z,92.60
2019-03-03T03:56:26.182Z,92.60
2019-03-03T03:59:07.943Z,92.50
2019-03-03T04:02:07.991Z,92.50
2019-03-03T04:04:44.033Z,92.50
2019-03-03T04:07:28.793Z,92.60
2019-03-03T04:10:17.025Z,92.50
2019-03-03T04:13:00.752Z,92.60
2019-03-03T04:15:51.430Z,92.60
2019-03-03T04:18:46.677Z,92.50
2019-03-03T04:21:21.401Z,92.60
2019-03-03T04:24:09.948Z,92.50
2019-03-03T04:26:57.203Z,92.60
2019-03-03T04:29:32.312Z,92.90
2019-03-03T04:32:29.540Z,92.50
2019-03-03T04:35:17.409Z,92.50
2019-03-03T04:37:57.497Z,92.60
2019-03-03T04:40:51.428Z,92.80
2019-03-03T04:43:25.772Z,92.60
2019-03-03T04:46:16.582Z,92.70
2019-03-03T04:49:03.201Z,92.60
2019-03-03T04:51:51.105Z,93.00
2019-03-03T04:54:38.965Z,92.70
2019-03-03T04:57:25.517Z,92.70
2019-03-03T05:00:19.015Z,92.80
2019-03-03T05:03:16.057Z,92.80
2019-03-03T05:05:49.824Z,92.60
2019-03-03T05:08:22.960Z,92.90
2019-03-03T05:11:15.838Z,93.00
2019-03-03T05:14:02.042Z,92.50
2019-03-03T05:16:49.737Z,92.50
2019-03-03T05:19:25.895Z,92.80
2019-03-03T05:24:23.001Z,92.40
2019-03-03T05:26:51.797Z,92.40
2019-03-03T05:29:20.605Z,92.40
2019-03-03T05:31:49.454Z,92.30
2019-03-03T05:34:18.232Z,92.20
2019-03-03T05:36:47.084Z,92.10
2019-03-03T05:41:44.229Z,92.10
2019-03-03T05:44:13.132Z,91.90
2019-03-03T05:46:41.905Z,91.90
2019-03-03T05:51:39.429Z,91.90
2019-03-03T05:54:08.204Z,91.70
2019-03-03T05:56:36.976Z,91.70
2019-03-03T05:59:05.764Z,91.70
2019-03-03T06:01:34.546Z,91.80
2019-03-03T06:04:03.583Z,91.70
2019-03-03T06:06:32.372Z,91.70
2019-03-03T06:11:29.499Z,91.70
2019-03-03T06:13:58.272Z,91.70
2019-03-03T06:16:27.064Z,91.80
2019-03-03T06:18:55.840Z,91.80
2019-03-03T06:21:24.617Z,91.70
2019-03-03T06:23:53.404Z,91.70
2019-03-03T06:26:22.208Z,91.70
2019-03-03T06:28:51.011Z,91.80
2019-03-03T06:31:20.057Z,92.10
2019-03-03T06:33:48.849Z,91.80
2019-03-03T06:36:17.637Z,92.00
2019-03-03T06:38:46.415Z,92.00
2019-03-03T06:41:15.201Z,92.10
2019-03-03T06:43:43.988Z,92.00
2019-03-03T06:46:12.770Z,92.40
2019-03-03T06:48:41.800Z,92.00
2019-03-03T06:51:10.668Z,92.30
2019-03-03T06:53:39.456Z,92.00
2019-03-03T06:56:08.396Z,92.30
2019-03-03T06:58:37.257Z,92.40
2019-03-03T07:01:06.100Z,92.40
2019-03-03T07:03:34.919Z,92.10
2019-03-03T07:06:04.059Z,92.50
2019-03-03T07:08:32.845Z,92.50
2019-03-03T07:11:01.617Z,92.20
2019-03-03T07:13:30.480Z,92.20
2019-03-03T07:15:59.245Z,92.30
2019-03-03T07:18:28.091Z,92.40
2019-03-03T07:20:56.877Z,92.40
2019-03-03T07:23:25.657Z,92.40
2019-03-03T07:25:54.424Z,92.40
2019-03-03T07:28:23.204Z,92.80
2019-03-03T07:30:52.001Z,92.80
2019-03-03T07:33:31.817Z,92.50
2019-03-03T07:36:00.607Z,92.40
2019-03-03T07:38:30.467Z,92.30
2019-03-03T07:40:59.307Z,92.70
2019-03-03T07:43:28.091Z,92.30
2019-03-03T07:45:56.969Z,92.20
2019-03-03T07:48:25.824Z,92.60
2019-03-03T07:50:54.777Z,92.50
2019-03-03T07:53:23.627Z,92.40
2019-03-03T07:55:52.476Z,92.60
2019-03-03T07:58:21.267Z,92.60
2019-03-03T08:00:50.151Z,92.70
2019-03-03T08:03:19.260Z,92.50
2019-03-03T08:08:16.477Z,92.40
2019-03-03T08:13:13.656Z,92.40
2019-03-03T08:20:39.452Z,92.10
2019-03-03T08:23:08.234Z,92.10
2019-03-03T08:25:37.081Z,92.00
2019-03-03T08:28:06.070Z,91.80
2019-03-03T08:33:03.553Z,91.70
2019-03-03T08:35:32.473Z,91.60
2019-03-03T08:38:01.325Z,91.80
2019-03-03T08:40:30.123Z,91.90
2019-03-03T08:43:12.248Z,91.90
2019-03-03T08:45:58.630Z,92.00
2019-03-03T08:48:49.595Z,92.10
2019-03-03T08:51:30.348Z,92.10
2019-03-03T08:56:57.418Z,92.30
2019-03-03T08:59:41.397Z,92.40
2019-03-03T09:02:17.415Z,92.30
2019-03-03T09:04:55.119Z,92.30
2019-03-03T09:10:28.336Z,92.30
2019-03-03T09:13:07.052Z,92.30
2019-03-03T09:15:57.800Z,92.40
2019-03-03T09:18:45.663Z,92.40
2019-03-03T09:21:32.372Z,92.30
2019-03-03T09:24:26.588Z,92.50
2019-03-03T09:27:19.143Z,92.50
2019-03-03T09:29:55.612Z,92.40
2019-03-03T09:32:36.577Z,92.40
2019-03-03T09:35:30.545Z,92.30
2019-03-03T09:38:18.420Z,92.20
2019-03-03T09:40:55.263Z,92.40
2019-03-03T09:49:25.844Z,92.20
2019-03-03T09:52:14.504Z,92.30
2019-03-03T09:55:02.383Z,92.20
2019-03-03T09:57:53.316Z,92.00
2019-03-03T10:00:34.015Z,92.10
2019-03-03T10:03:31.256Z,92.10
2019-03-03T10:09:12.532Z,92.00
2019-03-03T10:12:03.557Z,92.00
2019-03-03T10:14:51.513Z,92.00
2019-03-03T10:20:40.453Z,92.10
2019-03-03T10:23:25.548Z,92.10
2019-03-03T10:26:18.316Z,92.10
2019-03-03T10:29:08.314Z,92.10
2019-03-03T10:32:03.841Z,92.00
2019-03-03T10:34:49.489Z,91.50
2019-03-03T10:37:36.100Z,91.60
2019-03-03T10:40:14.924Z,92.00
2019-03-03T10:48:32.222Z,93.60
2019-03-03T10:51:17.672Z,93.40
2019-03-03T10:56:37.051Z,93.30
2019-03-03T10:59:14.658Z,93.50
2019-03-03T11:02:05.420Z,93.50
2019-03-03T11:05:05.381Z,93.20
2019-03-03T11:07:50.565Z,92.90
2019-03-03T11:10:41.565Z,92.80
2019-03-03T11:13:33.196Z,92.70
2019-03-03T11:16:18.514Z,92.70
2019-03-03T11:18:56.341Z,92.70
2019-03-03T11:21:44.291Z,92.60
2019-03-03T11:24:44.585Z,92.50
2019-03-03T11:27:38.309Z,92.40
2019-03-03T11:30:16.629Z,92.40
2019-03-03T11:33:02.532Z,92.40
2019-03-03T11:43:56.550Z,91.90
2019-03-03T11:46:44.554Z,91.70
2019-03-03T11:49:35.325Z,91.80
2019-03-03T11:52:27.617Z,91.70
2019-03-03T11:55:15.551Z,91.80
2019-03-03T11:57:50.889Z,91.80
2019-03-03T12:00:43.148Z,92.20
2019-03-03T12:03:26.561Z,91.80
2019-03-03T12:06:13.187Z,91.90
2019-03-03T12:12:01.436Z,92.70
2019-03-03T12:14:52.434Z,93.70
2019-03-03T12:17:34.035Z,94.10
2019-03-03T12:20:28.380Z,94.50
2019-03-03T12:23:17.084Z,94.50
2019-03-03T12:26:07.325Z,94.50
2019-03-03T12:28:53.996Z,94.30
2019-03-03T12:31:45.251Z,94.10
2019-03-03T12:34:31.004Z,93.40
2019-03-03T12:42:44.967Z,92.10
2019-03-03T12:45:35.665Z,91.70
2019-03-03T12:48:16.073Z,91.70
2019-03-03T12:51:06.867Z,91.80
2019-03-03T12:53:47.415Z,91.80
2019-03-03T12:56:35.363Z,91.70
2019-03-03T12:59:23.072Z,91.60
2019-03-03T13:02:09.521Z,91.60
2019-03-03T13:05:03.478Z,91.60
2019-03-03T13:08:00.171Z,91.90
2019-03-03T13:10:47.258Z,92.10
2019-03-03T13:16:15.212Z,92.40
2019-03-03T13:19:01.846Z,92.50
2019-03-03T13:24:35.389Z,92.60
2019-03-03T13:27:22.043Z,92.60
2019-03-03T13:30:19.218Z,92.40
2019-03-03T13:32:57.305Z,92.60
2019-03-03T13:38:59.153Z,92.60
2019-03-03T13:44:21.420Z,92.60
2019-03-03T13:49:18.551Z,92.50
2019-03-03T13:51:47.429Z,92.40
2019-03-03T13:54:16.348Z,92.60
2019-03-03T13:56:45.220Z,92.50
2019-03-03T13:59:14.374Z,92.50
2019-03-03T14:01:43.544Z,92.50
2019-03-03T14:04:12.418Z,92.30
2019-03-03T14:06:41.281Z,92.10
2019-03-03T14:14:07.165Z,92.10
2019-03-03T14:21:33.040Z,92.10
2019-03-03T14:26:30.226Z,92.20
2019-03-03T14:31:27.507Z,92.10
2019-03-03T14:33:56.432Z,92.10
2019-03-03T14:36:25.376Z,92.10
2019-03-03T14:38:54.174Z,92.00
2019-03-03T14:41:23.023Z,92.00
2019-03-03T14:51:17.413Z,92.10
2019-03-03T14:53:46.228Z,92.00
2019-03-03T14:56:15.067Z,92.30
2019-03-03T14:58:43.857Z,91.90
2019-03-03T15:01:12.671Z,91.70
2019-03-03T15:03:41.561Z,91.70
2019-03-03T15:06:10.477Z,91.60
2019-03-03T15:21:01.061Z,91.40
2019-03-03T15:23:29.841Z,91.40
2019-03-03T15:25:58.690Z,91.50
2019-03-03T15:28:27.632Z,91.40
2019-03-03T15:30:56.520Z,91.60
2019-03-03T15:33:25.399Z,91.60
2019-03-03T15:35:54.186Z,91.70
2019-03-03T15:40:51.380Z,91.60
2019-03-03T15:45:48.554Z,91.30
2019-03-03T15:48:17.416Z,91.40
2019-03-03T15:50:46.269Z,91.50
2019-03-03T15:53:15.358Z,91.50
2019-03-03T15:55:44.144Z,91.50
2019-03-03T16:00:41.472Z,91.20
2019-03-03T16:03:10.352Z,91.10
2019-03-03T16:05:39.389Z,91.10
2019-03-03T16:08:08.325Z,91.30
2019-03-03T16:13:05.567Z,91.20
2019-03-03T16:15:34.358Z,91.30
2019-03-03T16:20:31.600Z,91.60
2019-03-03T16:23:00.368Z,91.60
2019-03-03T16:25:29.798Z,91.70
2019-03-03T16:27:58.570Z,91.80
2019-03-03T16:30:27.491Z,91.90
2019-03-03T16:32:56.256Z,91.80
2019-03-03T16:37:53.364Z,91.70
2019-03-03T16:42:50.927Z,91.80
2019-03-03T16:45:20.084Z,91.70
2019-03-03T16:47:49.013Z,91.80
2019-03-03T16:50:18.240Z,91.70
2019-03-03T16:52:48.046Z,91.70
2019-03-03T16:55:17.196Z,91.70
2019-03-03T16:57:46.106Z,91.40
2019-03-03T17:00:16.923Z,91.50
2019-03-03T17:02:45.760Z,91.60
2019-03-03T17:05:15.414Z,91.70
2019-03-03T17:10:13.164Z,91.70
2019-03-03T17:12:42.116Z,91.50
2019-03-03T17:15:14.145Z,91.40
2019-03-03T17:17:43.017Z,91.30
2019-03-03T17:20:11.953Z,91.60
2019-03-03T17:22:40.745Z,91.20
2019-03-03T17:25:11.965Z,91.10
2019-03-03T17:27:40.772Z,90.80
2019-03-03T17:30:18.262Z,91.20
2019-03-03T17:32:50.187Z,90.90
2019-03-03T17:35:19.457Z,90.80
2019-03-03T17:45:18.865Z,90.40
2019-03-03T17:47:47.907Z,90.50
2019-03-03T17:50:17.796Z,90.70
2019-03-03T17:52:46.841Z,90.60
2019-03-03T17:55:16.561Z,90.60
2019-03-03T17:57:45.577Z,91.00
2019-03-03T18:00:17.597Z,90.60
2019-03-03T18:02:46.435Z,90.70
2019-03-03T18:05:16.973Z,90.60
2019-03-03T18:12:42.926Z,90.60
2019-03-03T18:15:11.900Z,90.50
2019-03-03T18:17:40.844Z,90.60
2019-03-03T18:22:39.310Z,90.50
2019-03-03T18:25:08.799Z,90.50
2019-03-03T18:27:37.670Z,90.50
2019-03-03T18:30:08.648Z,90.50
2019-03-03T18:32:37.427Z,90.30
2019-03-03T18:35:06.448Z,90.30
2019-03-03T18:37:35.308Z,90.30
2019-03-03T18:40:05.285Z,90.20
2019-03-03T18:49:59.041Z,90.10
2019-03-03T18:52:28.073Z,90.00
2019-03-03T18:54:56.849Z,89.50
2019-03-03T18:57:25.981Z,89.60
2019-03-03T19:17:15.158Z,87.90
2019-03-03T19:19:44.821Z,87.70
2019-03-03T19:22:15.284Z,88.00
2019-03-03T19:27:12.486Z,88.10
2019-03-03T19:29:41.280Z,88.20
2019-03-03T19:32:10.213Z,87.90
2019-03-03T19:34:39.084Z,87.70
2019-03-03T19:37:08.413Z,87.90
2019-03-03T19:39:37.184Z,87.90
2019-03-03T19:47:02.807Z,87.80
2019-03-03T19:49:31.758Z,87.90
2019-03-03T19:52:03.017Z,87.80
2019-03-03T19:54:31.868Z,88.10
2019-03-03T19:57:00.925Z,88.50
2019-03-03T19:59:29.723Z,88.60
2019-03-03T20:01:58.504Z,88.90
2019-03-03T20:04:27.401Z,88.80
2019-03-03T20:06:56.253Z,88.90
2019-03-03T20:09:25.172Z,88.70
2019-03-03T20:14:22.491Z,89.10
2019-03-03T20:16:51.373Z,89.30
2019-03-03T20:19:20.252Z,89.70
2019-03-03T20:21:49.557Z,89.90
2019-03-03T20:24:18.395Z,90.00
2019-03-03T20:26:47.181Z,90.00
2019-03-03T20:29:16.137Z,90.20
2019-03-03T20:31:45.107Z,90.20
2019-03-03T20:34:13.892Z,90.30
2019-03-03T20:36:42.693Z,90.50
2019-03-03T20:39:12.012Z,90.50
2019-03-03T20:41:40.876Z,90.70
2019-03-03T20:44:09.723Z,90.70
2019-03-03T20:46:38.513Z,90.90
2019-03-03T20:49:07.493Z,90.80
2019-03-03T20:51:36.367Z,91.00
2019-03-03T20:54:05.485Z,91.20
2019-03-03T20:56:34.284Z,91.20
2019-03-03T20:59:03.055Z,91.30
2019-03-03T21:01:32.148Z,91.30
2019-03-03T21:04:00.931Z,91.40
2019-03-03T21:08:58.057Z,91.50
2019-03-03T21:11:26.849Z,91.70
2019-03-03T21:13:55.738Z,91.60
2019-03-03T21:18:53.160Z,91.60
2019-03-03T21:21:22.041Z,91.60
2019-03-03T21:23:50.885Z,91.70
2019-03-03T21:26:19.692Z,91.60
2019-03-03T21:28:48.488Z,91.50
2019-03-03T21:31:17.314Z,91.50
2019-03-03T21:33:46.079Z,91.50
2019-03-03T21:38:43.563Z,91.50
2019-03-03T21:41:12.408Z,91.50
2019-03-03T21:46:10.150Z,91.30
2019-03-03T21:48:39.081Z,91.30
2019-03-03T21:51:07.957Z,91.30
2019-03-03T21:56:06.111Z,91.00
2019-03-03T21:58:34.972Z,91.00
2019-03-03T22:01:04.902Z,90.80
2019-03-03T22:03:33.685Z,90.80
2019-03-03T22:06:02.597Z,90.50
2019-03-03T22:10:59.709Z,90.30
2019-03-03T22:13:28.512Z,90.20
2019-03-03T22:15:57.289Z,90.00
2019-03-03T22:20:54.408Z,90.00
2019-03-03T22:23:23.185Z,90.00
2019-03-03T22:28:20.287Z,89.40
2019-03-03T22:30:49.163Z,89.70
2019-03-03T22:33:18.156Z,89.80
2019-03-03T22:35:46.941Z,89.80
2019-03-03T22:38:15.800Z,90.00
2019-03-03T22:40:44.654Z,90.00
2019-03-03T22:43:13.449Z,89.90
2019-03-03T22:45:42.274Z,89.90
2019-03-03T22:48:11.055Z,90.00
2019-03-03T22:50:39.944Z,90.00
2019-03-03T22:53:08.829Z,90.00
2019-03-03T22:55:40.398Z,89.50
2019-03-03T22:58:09.656Z,89.40
2019-03-03T23:01:12.649Z,89.90
2019-03-03T23:06:16.931Z,89.40
2019-03-03T23:09:24.352Z,89.40
2019-03-03T23:11:59.082Z,89.50
2019-03-03T23:17:28.505Z,89.30
2019-03-03T23:20:11.513Z,89.50
2019-03-03T23:23:36.820Z,90.00
2019-03-03T23:26:05.725Z,89.40
2019-03-03T23:28:34.557Z,89.60
2019-03-03T23:31:03.341Z,90.00
2019-03-03T23:33:32.126Z,89.90
2019-03-03T23:36:01.024Z,89.70
2019-03-03T23:40:58.516Z,89.30
2019-03-03T23:43:27.374Z,88.90
2019-03-03T23:48:24.485Z,88.50
2019-03-03T23:50:53.358Z,88.10
2019-03-03T23:53:22.132Z,88.10
2019-03-03T23:55:50.985Z,88.10
2019-03-03T23:58:19.790Z,88.30
